sensor_id;sensor_type;location;lat;lon;timestamp;P1;durP1;ratioP1;P2;durP2;ratioP2
71462;SDS011;59266;52.608;13.260;2023-04-25T00:00:12;7.03;;;2.63;;
71462;SDS011;59266;52.608;13.260;2023-04-25T00:02:41;7.72;;;2.30;;
71462;SDS011;59266;52.608;13.260;2023-04-25T00:05:09;9.82;;;2.20;;
71462;SDS011;59266;52.608;13.260;2023-04-25T00:07:36;8.52;;;2.50;;
71462;SDS011;59266;52.608;13.260;2023-04-25T00:10:03;5.35;;;2.13;;
71462;SDS011;59266;52.608;13.260;2023-04-25T00:12:29;8.48;;;2.67;;
71462;SDS011;59266;52.608;13.260;2023-04-25T00:14:57;6.88;;;2.38;;
71462;SDS011;59266;52.608;13.260;2023-04-25T00:17:24;8.63;;;2.33;;
71462;SDS011;59266;52.608;13.260;2023-04-25T00:19:51;6.35;;;2.00;;
71462;SDS011;59266;52.608;13.260;2023-04-25T00:22:20;8.07;;;2.20;;
71462;SDS011;59266;52.608;13.260;2023-04-25T00:24:47;8.80;;;2.20;;
71462;SDS011;59266;52.608;13.260;2023-04-25T00:27:15;7.57;;;2.38;;
71462;SDS011;59266;52.608;13.260;2023-04-25T00:29:42;5.60;;;2.03;;
71462;SDS011;59266;52.608;13.260;2023-04-25T00:32:08;7.65;;;2.40;;
71462;SDS011;59266;52.608;13.260;2023-04-25T00:34:37;9.10;;;2.83;;
71462;SDS011;59266;52.608;13.260;2023-04-25T00:37:03;9.82;;;2.33;;
71462;SDS011;59266;52.608;13.260;2023-04-25T00:39:30;12.07;;;2.83;;
71462;SDS011;59266;52.608;13.260;2023-04-25T00:41:57;5.45;;;1.92;;
71462;SDS011;59266;52.608;13.260;2023-04-25T00:44:24;9.45;;;2.47;;
71462;SDS011;59266;52.608;13.260;2023-04-25T00:46:51;7.68;;;2.55;;
71462;SDS011;59266;52.608;13.260;2023-04-25T00:49:18;10.20;;;2.58;;
71462;SDS011;59266;52.608;13.260;2023-04-25T00:51:45;9.73;;;2.35;;
71462;SDS011;59266;52.608;13.260;2023-04-25T00:54:11;7.72;;;2.40;;
71462;SDS011;59266;52.608;13.260;2023-04-25T00:56:39;10.40;;;2.28;;
71462;SDS011;59266;52.608;13.260;2023-04-25T00:59:06;9.98;;;2.60;;
71462;SDS011;59266;52.608;13.260;2023-04-25T01:01:33;11.15;;;2.65;;
71462;SDS011;59266;52.608;13.260;2023-04-25T01:03:59;8.23;;;2.78;;
71462;SDS011;59266;52.608;13.260;2023-04-25T01:06:27;7.82;;;2.78;;
71462;SDS011;59266;52.608;13.260;2023-04-25T01:08:54;9.80;;;2.70;;
71462;SDS011;59266;52.608;13.260;2023-04-25T01:11:20;5.43;;;2.00;;
71462;SDS011;59266;52.608;13.260;2023-04-25T01:13:50;13.95;;;2.40;;
71462;SDS011;59266;52.608;13.260;2023-04-25T01:16:19;11.18;;;2.55;;
71462;SDS011;59266;52.608;13.260;2023-04-25T01:18:47;7.35;;;2.20;;
71462;SDS011;59266;52.608;13.260;2023-04-25T01:21:14;10.88;;;2.38;;
71462;SDS011;59266;52.608;13.260;2023-04-25T01:23:41;8.45;;;3.25;;
71462;SDS011;59266;52.608;13.260;2023-04-25T01:26:10;8.98;;;2.33;;
71462;SDS011;59266;52.608;13.260;2023-04-25T01:28:38;12.35;;;2.60;;
71462;SDS011;59266;52.608;13.260;2023-04-25T01:31:07;12.35;;;2.83;;
71462;SDS011;59266;52.608;13.260;2023-04-25T01:33:35;7.93;;;2.10;;
71462;SDS011;59266;52.608;13.260;2023-04-25T01:36:02;10.85;;;2.63;;
71462;SDS011;59266;52.608;13.260;2023-04-25T01:38:29;12.43;;;2.45;;
71462;SDS011;59266;52.608;13.260;2023-04-25T01:40:56;7.13;;;2.03;;
71462;SDS011;59266;52.608;13.260;2023-04-25T01:43:24;10.30;;;2.67;;
71462;SDS011;59266;52.608;13.260;2023-04-25T01:45:52;7.18;;;2.40;;
71462;SDS011;59266;52.608;13.260;2023-04-25T01:48:19;12.25;;;2.50;;
71462;SDS011;59266;52.608;13.260;2023-04-25T01:50:47;10.05;;;2.92;;
71462;SDS011;59266;52.608;13.260;2023-04-25T01:53:15;11.85;;;3.10;;
71462;SDS011;59266;52.608;13.260;2023-04-25T01:55:42;8.88;;;2.53;;
71462;SDS011;59266;52.608;13.260;2023-04-25T01:58:08;10.02;;;2.63;;
71462;SDS011;59266;52.608;13.260;2023-04-25T02:00:36;8.95;;;2.88;;
71462;SDS011;59266;52.608;13.260;2023-04-25T02:03:07;15.63;;;3.00;;
71462;SDS011;59266;52.608;13.260;2023-04-25T02:05:35;13.07;;;3.20;;
71462;SDS011;59266;52.608;13.260;2023-04-25T02:08:05;10.50;;;2.63;;
71462;SDS011;59266;52.608;13.260;2023-04-25T02:10:34;9.27;;;2.60;;
71462;SDS011;59266;52.608;13.260;2023-04-25T02:13:02;8.90;;;2.88;;
71462;SDS011;59266;52.608;13.260;2023-04-25T02:15:29;9.63;;;3.10;;
71462;SDS011;59266;52.608;13.260;2023-04-25T02:17:56;9.00;;;2.92;;
71462;SDS011;59266;52.608;13.260;2023-04-25T02:20:24;9.13;;;2.80;;
71462;SDS011;59266;52.608;13.260;2023-04-25T02:22:51;10.68;;;2.97;;
71462;SDS011;59266;52.608;13.260;2023-04-25T02:25:21;11.13;;;3.00;;
71462;SDS011;59266;52.608;13.260;2023-04-25T02:27:48;7.97;;;3.10;;
71462;SDS011;59266;52.608;13.260;2023-04-25T02:30:14;9.40;;;2.85;;
71462;SDS011;59266;52.608;13.260;2023-04-25T02:32:41;10.73;;;3.42;;
71462;SDS011;59266;52.608;13.260;2023-04-25T02:35:08;8.40;;;3.08;;
71462;SDS011;59266;52.608;13.260;2023-04-25T02:37:36;9.95;;;2.97;;
71462;SDS011;59266;52.608;13.260;2023-04-25T02:40:04;9.55;;;3.30;;
71462;SDS011;59266;52.608;13.260;2023-04-25T02:42:33;11.27;;;3.28;;
71462;SDS011;59266;52.608;13.260;2023-04-25T02:45:01;7.75;;;2.50;;
71462;SDS011;59266;52.608;13.260;2023-04-25T02:47:29;10.88;;;3.85;;
71462;SDS011;59266;52.608;13.260;2023-04-25T02:49:56;9.20;;;3.22;;
71462;SDS011;59266;52.608;13.260;2023-04-25T02:52:23;9.32;;;3.28;;
71462;SDS011;59266;52.608;13.260;2023-04-25T02:54:49;12.68;;;3.20;;
71462;SDS011;59266;52.608;13.260;2023-04-25T02:57:16;14.20;;;3.83;;
71462;SDS011;59266;52.608;13.260;2023-04-25T02:59:43;11.68;;;3.20;;
71462;SDS011;59266;52.608;13.260;2023-04-25T03:02:10;10.75;;;3.75;;
71462;SDS011;59266;52.608;13.260;2023-04-25T03:04:37;11.80;;;3.70;;
71462;SDS011;59266;52.608;13.260;2023-04-25T03:07:04;15.20;;;3.60;;
71462;SDS011;59266;52.608;13.260;2023-04-25T03:09:31;12.50;;;3.58;;
71462;SDS011;59266;52.608;13.260;2023-04-25T03:11:57;10.48;;;3.35;;
71462;SDS011;59266;52.608;13.260;2023-04-25T03:14:24;10.68;;;3.40;;
71462;SDS011;59266;52.608;13.260;2023-04-25T03:16:53;11.60;;;3.38;;
71462;SDS011;59266;52.608;13.260;2023-04-25T03:19:20;13.43;;;3.22;;
71462;SDS011;59266;52.608;13.260;2023-04-25T03:21:46;9.52;;;3.10;;
71462;SDS011;59266;52.608;13.260;2023-04-25T03:24:14;12.32;;;4.00;;
71462;SDS011;59266;52.608;13.260;2023-04-25T03:26:44;8.88;;;3.42;;
71462;SDS011;59266;52.608;13.260;2023-04-25T03:29:13;9.05;;;3.38;;
71462;SDS011;59266;52.608;13.260;2023-04-25T03:31:40;10.07;;;3.17;;
71462;SDS011;59266;52.608;13.260;2023-04-25T03:34:07;11.45;;;3.50;;
71462;SDS011;59266;52.608;13.260;2023-04-25T03:36:33;12.30;;;3.40;;
71462;SDS011;59266;52.608;13.260;2023-04-25T03:39:00;9.20;;;3.63;;
71462;SDS011;59266;52.608;13.260;2023-04-25T03:41:26;14.65;;;3.78;;
71462;SDS011;59266;52.608;13.260;2023-04-25T03:43:54;9.10;;;3.42;;
71462;SDS011;59266;52.608;13.260;2023-04-25T03:46:20;10.30;;;3.78;;
71462;SDS011;59266;52.608;13.260;2023-04-25T03:48:50;9.90;;;3.40;;
71462;SDS011;59266;52.608;13.260;2023-04-25T03:51:17;8.85;;;3.08;;
71462;SDS011;59266;52.608;13.260;2023-04-25T03:53:44;13.98;;;3.35;;
71462;SDS011;59266;52.608;13.260;2023-04-25T03:56:10;14.32;;;3.90;;
71462;SDS011;59266;52.608;13.260;2023-04-25T03:58:39;10.00;;;3.45;;
71462;SDS011;59266;52.608;13.260;2023-04-25T04:01:06;10.77;;;3.45;;
71462;SDS011;59266;52.608;13.260;2023-04-25T04:03:34;17.23;;;3.67;;
71462;SDS011;59266;52.608;13.260;2023-04-25T04:08:32;8.57;;;3.22;;
71462;SDS011;59266;52.608;13.260;2023-04-25T04:10:59;12.73;;;3.65;;
71462;SDS011;59266;52.608;13.260;2023-04-25T04:13:26;9.95;;;3.20;;
71462;SDS011;59266;52.608;13.260;2023-04-25T04:15:54;11.60;;;3.47;;
71462;SDS011;59266;52.608;13.260;2023-04-25T04:18:21;11.68;;;3.92;;
71462;SDS011;59266;52.608;13.260;2023-04-25T04:20:48;12.02;;;3.70;;
71462;SDS011;59266;52.608;13.260;2023-04-25T04:23:15;9.75;;;3.47;;
71462;SDS011;59266;52.608;13.260;2023-04-25T04:25:43;8.10;;;3.22;;
71462;SDS011;59266;52.608;13.260;2023-04-25T04:28:09;11.48;;;3.15;;
71462;SDS011;59266;52.608;13.260;2023-04-25T04:30:37;9.40;;;3.35;;
71462;SDS011;59266;52.608;13.260;2023-04-25T04:33:05;12.43;;;3.20;;
71462;SDS011;59266;52.608;13.260;2023-04-25T04:35:32;10.25;;;3.30;;
71462;SDS011;59266;52.608;13.260;2023-04-25T04:38:00;11.63;;;3.88;;
71462;SDS011;59266;52.608;13.260;2023-04-25T04:40:26;11.27;;;3.53;;
71462;SDS011;59266;52.608;13.260;2023-04-25T04:42:53;10.48;;;3.97;;
71462;SDS011;59266;52.608;13.260;2023-04-25T04:45:22;10.18;;;2.92;;
71462;SDS011;59266;52.608;13.260;2023-04-25T04:47:51;10.20;;;3.00;;
71462;SDS011;59266;52.608;13.260;2023-04-25T04:50:18;8.15;;;3.17;;
71462;SDS011;59266;52.608;13.260;2023-04-25T04:52:47;9.60;;;3.30;;
71462;SDS011;59266;52.608;13.260;2023-04-25T04:55:14;9.95;;;3.30;;
71462;SDS011;59266;52.608;13.260;2023-04-25T04:57:44;10.68;;;3.33;;
71462;SDS011;59266;52.608;13.260;2023-04-25T05:00:12;10.90;;;3.00;;
71462;SDS011;59266;52.608;13.260;2023-04-25T05:02:39;9.52;;;3.30;;
71462;SDS011;59266;52.608;13.260;2023-04-25T05:05:06;10.98;;;2.97;;
71462;SDS011;59266;52.608;13.260;2023-04-25T05:07:34;9.30;;;2.75;;
71462;SDS011;59266;52.608;13.260;2023-04-25T05:10:00;10.55;;;3.25;;
71462;SDS011;59266;52.608;13.260;2023-04-25T05:12:27;10.18;;;3.55;;
71462;SDS011;59266;52.608;13.260;2023-04-25T05:14:53;12.30;;;4.43;;
71462;SDS011;59266;52.608;13.260;2023-04-25T05:17:20;9.23;;;3.30;;
71462;SDS011;59266;52.608;13.260;2023-04-25T05:19:47;11.73;;;3.15;;
71462;SDS011;59266;52.608;13.260;2023-04-25T05:22:13;14.27;;;3.15;;
71462;SDS011;59266;52.608;13.260;2023-04-25T05:24:40;10.55;;;3.58;;
71462;SDS011;59266;52.608;13.260;2023-04-25T05:27:08;10.32;;;3.03;;
71462;SDS011;59266;52.608;13.260;2023-04-25T05:29:34;11.50;;;3.53;;
71462;SDS011;59266;52.608;13.260;2023-04-25T05:32:01;11.32;;;3.78;;
71462;SDS011;59266;52.608;13.260;2023-04-25T05:34:28;8.40;;;2.65;;
71462;SDS011;59266;52.608;13.260;2023-04-25T05:36:55;11.07;;;3.28;;
71462;SDS011;59266;52.608;13.260;2023-04-25T05:39:21;9.50;;;2.70;;
71462;SDS011;59266;52.608;13.260;2023-04-25T05:41:48;10.13;;;3.40;;
71462;SDS011;59266;52.608;13.260;2023-04-25T05:44:15;9.52;;;3.35;;
71462;SDS011;59266;52.608;13.260;2023-04-25T05:46:42;11.18;;;3.22;;
71462;SDS011;59266;52.608;13.260;2023-04-25T05:49:09;14.38;;;3.72;;
71462;SDS011;59266;52.608;13.260;2023-04-25T05:51:36;12.48;;;3.72;;
71462;SDS011;59266;52.608;13.260;2023-04-25T05:54:03;10.98;;;3.70;;
71462;SDS011;59266;52.608;13.260;2023-04-25T05:56:30;11.95;;;3.88;;
71462;SDS011;59266;52.608;13.260;2023-04-25T05:58:56;13.90;;;5.28;;
71462;SDS011;59266;52.608;13.260;2023-04-25T06:01:23;9.13;;;3.47;;
71462;SDS011;59266;52.608;13.260;2023-04-25T06:03:50;11.52;;;4.28;;
71462;SDS011;59266;52.608;13.260;2023-04-25T06:06:19;11.88;;;3.88;;
71462;SDS011;59266;52.608;13.260;2023-04-25T06:08:46;14.77;;;4.32;;
71462;SDS011;59266;52.608;13.260;2023-04-25T06:11:12;13.65;;;4.10;;
71462;SDS011;59266;52.608;13.260;2023-04-25T06:13:39;11.68;;;3.75;;
71462;SDS011;59266;52.608;13.260;2023-04-25T06:16:06;10.38;;;4.03;;
71462;SDS011;59266;52.608;13.260;2023-04-25T06:18:34;15.15;;;4.85;;
71462;SDS011;59266;52.608;13.260;2023-04-25T06:21:01;11.13;;;4.10;;
71462;SDS011;59266;52.608;13.260;2023-04-25T06:23:28;12.88;;;4.53;;
71462;SDS011;59266;52.608;13.260;2023-04-25T06:25:55;10.65;;;3.70;;
71462;SDS011;59266;52.608;13.260;2023-04-25T06:28:21;13.02;;;4.30;;
71462;SDS011;59266;52.608;13.260;2023-04-25T06:30:50;11.65;;;3.92;;
71462;SDS011;59266;52.608;13.260;2023-04-25T06:33:16;10.93;;;4.30;;
71462;SDS011;59266;52.608;13.260;2023-04-25T06:35:43;11.50;;;4.35;;
71462;SDS011;59266;52.608;13.260;2023-04-25T06:38:10;9.82;;;3.88;;
71462;SDS011;59266;52.608;13.260;2023-04-25T06:40:36;13.88;;;4.20;;
71462;SDS011;59266;52.608;13.260;2023-04-25T06:43:03;11.95;;;4.32;;
71462;SDS011;59266;52.608;13.260;2023-04-25T06:45:31;14.30;;;4.47;;
71462;SDS011;59266;52.608;13.260;2023-04-25T06:47:58;13.13;;;3.65;;
71462;SDS011;59266;52.608;13.260;2023-04-25T06:50:24;12.27;;;3.72;;
71462;SDS011;59266;52.608;13.260;2023-04-25T06:52:52;12.43;;;4.18;;
71462;SDS011;59266;52.608;13.260;2023-04-25T06:55:19;14.88;;;4.10;;
71462;SDS011;59266;52.608;13.260;2023-04-25T06:57:47;11.10;;;4.32;;
71462;SDS011;59266;52.608;13.260;2023-04-25T07:00:14;11.27;;;3.72;;
71462;SDS011;59266;52.608;13.260;2023-04-25T07:02:41;10.05;;;3.90;;
71462;SDS011;59266;52.608;13.260;2023-04-25T07:05:09;10.52;;;3.78;;
71462;SDS011;59266;52.608;13.260;2023-04-25T07:07:36;13.23;;;4.43;;
71462;SDS011;59266;52.608;13.260;2023-04-25T07:10:03;9.43;;;3.90;;
71462;SDS011;59266;52.608;13.260;2023-04-25T07:12:30;14.07;;;4.53;;
71462;SDS011;59266;52.608;13.260;2023-04-25T07:14:57;13.68;;;3.70;;
71462;SDS011;59266;52.608;13.260;2023-04-25T07:17:25;9.15;;;3.63;;
71462;SDS011;59266;52.608;13.260;2023-04-25T07:19:51;15.32;;;4.40;;
71462;SDS011;59266;52.608;13.260;2023-04-25T07:22:18;10.63;;;3.20;;
71462;SDS011;59266;52.608;13.260;2023-04-25T07:24:46;13.38;;;3.67;;
71462;SDS011;59266;52.608;13.260;2023-04-25T07:27:15;14.10;;;3.92;;
71462;SDS011;59266;52.608;13.260;2023-04-25T07:29:43;19.52;;;3.33;;
71462;SDS011;59266;52.608;13.260;2023-04-25T07:32:10;11.20;;;3.20;;
71462;SDS011;59266;52.608;13.260;2023-04-25T07:34:40;12.07;;;3.75;;
71462;SDS011;59266;52.608;13.260;2023-04-25T07:37:07;19.67;;;3.45;;
71462;SDS011;59266;52.608;13.260;2023-04-25T07:39:34;20.17;;;4.07;;
71462;SDS011;59266;52.608;13.260;2023-04-25T07:42:01;14.75;;;3.30;;
71462;SDS011;59266;52.608;13.260;2023-04-25T07:44:29;19.48;;;3.10;;
71462;SDS011;59266;52.608;13.260;2023-04-25T07:46:56;13.68;;;2.60;;
71462;SDS011;59266;52.608;13.260;2023-04-25T07:49:23;22.98;;;3.35;;
71462;SDS011;59266;52.608;13.260;2023-04-25T07:51:50;17.13;;;3.75;;
71462;SDS011;59266;52.608;13.260;2023-04-25T07:54:16;15.63;;;3.20;;
71462;SDS011;59266;52.608;13.260;2023-04-25T07:56:44;15.52;;;3.65;;
71462;SDS011;59266;52.608;13.260;2023-04-25T07:59:18;23.92;;;3.72;;
71462;SDS011;59266;52.608;13.260;2023-04-25T08:01:45;21.27;;;3.40;;
71462;SDS011;59266;52.608;13.260;2023-04-25T08:04:12;19.58;;;3.63;;
71462;SDS011;59266;52.608;13.260;2023-04-25T08:06:40;18.60;;;3.55;;
71462;SDS011;59266;52.608;13.260;2023-04-25T08:09:09;22.88;;;3.88;;
71462;SDS011;59266;52.608;13.260;2023-04-25T08:11:36;19.63;;;3.85;;
71462;SDS011;59266;52.608;13.260;2023-04-25T08:14:03;20.35;;;4.28;;
71462;SDS011;59266;52.608;13.260;2023-04-25T08:16:31;14.77;;;3.38;;
71462;SDS011;59266;52.608;13.260;2023-04-25T08:18:59;19.73;;;3.33;;
71462;SDS011;59266;52.608;13.260;2023-04-25T08:21:26;14.93;;;3.55;;
71462;SDS011;59266;52.608;13.260;2023-04-25T08:23:54;18.88;;;3.13;;
71462;SDS011;59266;52.608;13.260;2023-04-25T08:26:21;18.60;;;3.13;;
71462;SDS011;59266;52.608;13.260;2023-04-25T08:28:47;14.85;;;2.80;;
71462;SDS011;59266;52.608;13.260;2023-04-25T08:31:14;14.13;;;2.88;;
71462;SDS011;59266;52.608;13.260;2023-04-25T08:33:42;15.20;;;2.60;;
71462;SDS011;59266;52.608;13.260;2023-04-25T08:36:13;16.13;;;3.22;;
71462;SDS011;59266;52.608;13.260;2023-04-25T08:38:49;13.23;;;2.40;;
71462;SDS011;59266;52.608;13.260;2023-04-25T08:41:19;16.63;;;3.85;;
71462;SDS011;59266;52.608;13.260;2023-04-25T08:43:48;18.60;;;3.10;;
71462;SDS011;59266;52.608;13.260;2023-04-25T08:46:19;14.18;;;3.13;;
71462;SDS011;59266;52.608;13.260;2023-04-25T08:48:46;12.93;;;2.60;;
71462;SDS011;59266;52.608;13.260;2023-04-25T08:51:15;20.95;;;3.33;;
71462;SDS011;59266;52.608;13.260;2023-04-25T08:53:50;13.20;;;2.50;;
71462;SDS011;59266;52.608;13.260;2023-04-25T08:56:27;16.90;;;2.80;;
71462;SDS011;59266;52.608;13.260;2023-04-25T08:58:56;10.52;;;2.17;;
71462;SDS011;59266;52.608;13.260;2023-04-25T09:01:23;16.83;;;2.90;;
71462;SDS011;59266;52.608;13.260;2023-04-25T09:03:51;11.65;;;2.30;;
71462;SDS011;59266;52.608;13.260;2023-04-25T09:06:19;12.25;;;2.65;;
71462;SDS011;59266;52.608;13.260;2023-04-25T09:08:45;13.50;;;2.50;;
71462;SDS011;59266;52.608;13.260;2023-04-25T09:11:12;13.05;;;2.70;;
71462;SDS011;59266;52.608;13.260;2023-04-25T09:13:41;14.82;;;2.78;;
71462;SDS011;59266;52.608;13.260;2023-04-25T09:16:08;11.50;;;2.63;;
71462;SDS011;59266;52.608;13.260;2023-04-25T09:18:37;23.05;;;3.05;;
71462;SDS011;59266;52.608;13.260;2023-04-25T09:21:05;10.25;;;2.58;;
71462;SDS011;59266;52.608;13.260;2023-04-25T09:23:46;13.18;;;2.60;;
71462;SDS011;59266;52.608;13.260;2023-04-25T09:26:15;13.52;;;2.47;;
71462;SDS011;59266;52.608;13.260;2023-04-25T09:28:43;10.18;;;1.95;;
71462;SDS011;59266;52.608;13.260;2023-04-25T09:31:10;9.93;;;2.15;;
71462;SDS011;59266;52.608;13.260;2023-04-25T09:33:40;6.72;;;1.90;;
71462;SDS011;59266;52.608;13.260;2023-04-25T09:36:07;9.30;;;1.90;;
71462;SDS011;59266;52.608;13.260;2023-04-25T09:38:45;11.73;;;2.03;;
71462;SDS011;59266;52.608;13.260;2023-04-25T09:41:12;11.52;;;2.20;;
71462;SDS011;59266;52.608;13.260;2023-04-25T09:43:39;9.25;;;2.55;;
71462;SDS011;59266;52.608;13.260;2023-04-25T09:46:09;11.82;;;1.92;;
71462;SDS011;59266;52.608;13.260;2023-04-25T09:48:39;10.65;;;2.10;;
71462;SDS011;59266;52.608;13.260;2023-04-25T09:51:09;7.75;;;2.10;;
71462;SDS011;59266;52.608;13.260;2023-04-25T09:53:40;8.35;;;1.83;;
71462;SDS011;59266;52.608;13.260;2023-04-25T09:56:09;9.65;;;1.73;;
71462;SDS011;59266;52.608;13.260;2023-04-25T09:58:40;7.93;;;1.63;;
71462;SDS011;59266;52.608;13.260;2023-04-25T10:01:08;12.70;;;2.17;;
71462;SDS011;59266;52.608;13.260;2023-04-25T10:03:37;11.70;;;1.95;;
71462;SDS011;59266;52.608;13.260;2023-04-25T10:06:07;10.77;;;1.90;;
71462;SDS011;59266;52.608;13.260;2023-04-25T10:08:35;11.60;;;1.88;;
71462;SDS011;59266;52.608;13.260;2023-04-25T10:11:03;11.35;;;2.00;;
71462;SDS011;59266;52.608;13.260;2023-04-25T10:13:34;9.18;;;2.00;;
71462;SDS011;59266;52.608;13.260;2023-04-25T10:16:03;8.85;;;1.60;;
71462;SDS011;59266;52.608;13.260;2023-04-25T10:18:32;14.48;;;2.22;;
71462;SDS011;59266;52.608;13.260;2023-04-25T10:21:01;10.68;;;2.55;;
71462;SDS011;59266;52.608;13.260;2023-04-25T10:23:29;10.10;;;1.95;;
71462;SDS011;59266;52.608;13.260;2023-04-25T10:26:00;7.50;;;1.83;;
71462;SDS011;59266;52.608;13.260;2023-04-25T10:28:28;13.40;;;2.17;;
71462;SDS011;59266;52.608;13.260;2023-04-25T10:31:07;9.90;;;2.20;;
71462;SDS011;59266;52.608;13.260;2023-04-25T10:33:35;10.70;;;2.45;;
71462;SDS011;59266;52.608;13.260;2023-04-25T10:36:19;13.73;;;2.25;;
71462;SDS011;59266;52.608;13.260;2023-04-25T10:38:50;9.73;;;1.80;;
71462;SDS011;59266;52.608;13.260;2023-04-25T10:41:20;7.45;;;1.60;;
71462;SDS011;59266;52.608;13.260;2023-04-25T10:43:49;11.10;;;1.98;;
71462;SDS011;59266;52.608;13.260;2023-04-25T10:46:25;10.40;;;1.83;;
71462;SDS011;59266;52.608;13.260;2023-04-25T10:48:54;9.20;;;2.03;;
71462;SDS011;59266;52.608;13.260;2023-04-25T10:51:23;9.73;;;2.05;;
71462;SDS011;59266;52.608;13.260;2023-04-25T10:56:28;11.40;;;1.83;;
71462;SDS011;59266;52.608;13.260;2023-04-25T10:59:13;13.00;;;2.28;;
71462;SDS011;59266;52.608;13.260;2023-04-25T11:01:48;12.07;;;2.03;;
71462;SDS011;59266;52.608;13.260;2023-04-25T11:04:21;18.55;;;2.13;;
71462;SDS011;59266;52.608;13.260;2023-04-25T11:09:33;14.05;;;2.20;;
71462;SDS011;59266;52.608;13.260;2023-04-25T11:12:01;12.93;;;2.03;;
71462;SDS011;59266;52.608;13.260;2023-04-25T11:14:28;11.68;;;1.80;;
71462;SDS011;59266;52.608;13.260;2023-04-25T11:16:56;18.15;;;2.30;;
71462;SDS011;59266;52.608;13.260;2023-04-25T11:19:26;10.90;;;2.00;;
71462;SDS011;59266;52.608;13.260;2023-04-25T11:21:56;11.75;;;2.20;;
71462;SDS011;59266;52.608;13.260;2023-04-25T11:24:32;10.80;;;1.52;;
71462;SDS011;59266;52.608;13.260;2023-04-25T11:27:01;11.73;;;1.80;;
71462;SDS011;59266;52.608;13.260;2023-04-25T11:31:59;8.18;;;1.60;;
71462;SDS011;59266;52.608;13.260;2023-04-25T11:34:28;8.07;;;1.52;;
71462;SDS011;59266;52.608;13.260;2023-04-25T11:37:00;9.15;;;1.77;;
71462;SDS011;59266;52.608;13.260;2023-04-25T11:39:28;9.70;;;1.45;;
71462;SDS011;59266;52.608;13.260;2023-04-25T11:41:56;8.30;;;1.60;;
71462;SDS011;59266;52.608;13.260;2023-04-25T11:44:23;9.32;;;2.00;;
71462;SDS011;59266;52.608;13.260;2023-04-25T11:46:50;11.40;;;2.03;;
71462;SDS011;59266;52.608;13.260;2023-04-25T11:49:17;8.25;;;1.40;;
71462;SDS011;59266;52.608;13.260;2023-04-25T11:51:45;9.60;;;1.63;;
71462;SDS011;59266;52.608;13.260;2023-04-25T11:54:13;6.88;;;1.83;;
71462;SDS011;59266;52.608;13.260;2023-04-25T11:56:41;10.20;;;1.90;;
71462;SDS011;59266;52.608;13.260;2023-04-25T11:59:11;11.77;;;1.80;;
71462;SDS011;59266;52.608;13.260;2023-04-25T12:01:41;8.57;;;1.63;;
71462;SDS011;59266;52.608;13.260;2023-04-25T12:04:18;10.73;;;2.42;;
71462;SDS011;59266;52.608;13.260;2023-04-25T12:06:47;9.52;;;2.08;;
71462;SDS011;59266;52.608;13.260;2023-04-25T12:09:16;9.38;;;1.92;;
71462;SDS011;59266;52.608;13.260;2023-04-25T12:11:45;9.35;;;1.75;;
71462;SDS011;59266;52.608;13.260;2023-04-25T12:14:23;8.35;;;1.98;;
71462;SDS011;59266;52.608;13.260;2023-04-25T12:16:54;9.40;;;1.80;;
71462;SDS011;59266;52.608;13.260;2023-04-25T12:19:23;7.63;;;2.15;;
71462;SDS011;59266;52.608;13.260;2023-04-25T12:21:50;7.25;;;1.67;;
71462;SDS011;59266;52.608;13.260;2023-04-25T12:24:21;12.23;;;2.00;;
71462;SDS011;59266;52.608;13.260;2023-04-25T12:26:58;17.70;;;2.63;;
71462;SDS011;59266;52.608;13.260;2023-04-25T12:29:30;14.50;;;1.88;;
71462;SDS011;59266;52.608;13.260;2023-04-25T12:32:13;7.18;;;1.80;;
71462;SDS011;59266;52.608;13.260;2023-04-25T12:34:40;7.70;;;1.70;;
71462;SDS011;59266;52.608;13.260;2023-04-25T12:37:06;8.88;;;2.28;;
71462;SDS011;59266;52.608;13.260;2023-04-25T12:39:33;9.25;;;1.60;;
71462;SDS011;59266;52.608;13.260;2023-04-25T12:42:02;9.68;;;1.80;;
71462;SDS011;59266;52.608;13.260;2023-04-25T12:44:34;16.58;;;2.10;;
71462;SDS011;59266;52.608;13.260;2023-04-25T12:47:03;12.98;;;1.83;;
71462;SDS011;59266;52.608;13.260;2023-04-25T12:49:30;9.25;;;1.95;;
71462;SDS011;59266;52.608;13.260;2023-04-25T12:51:56;7.78;;;1.50;;
71462;SDS011;59266;52.608;13.260;2023-04-25T12:54:24;8.50;;;1.90;;
71462;SDS011;59266;52.608;13.260;2023-04-25T12:56:51;11.73;;;2.05;;
71462;SDS011;59266;52.608;13.260;2023-04-25T12:59:18;5.72;;;1.60;;
71462;SDS011;59266;52.608;13.260;2023-04-25T13:01:46;9.23;;;2.00;;
71462;SDS011;59266;52.608;13.260;2023-04-25T13:04:14;9.02;;;2.00;;
71462;SDS011;59266;52.608;13.260;2023-04-25T13:06:41;8.27;;;1.67;;
71462;SDS011;59266;52.608;13.260;2023-04-25T13:09:08;9.20;;;2.00;;
71462;SDS011;59266;52.608;13.260;2023-04-25T13:11:37;10.63;;;1.60;;
71462;SDS011;59266;52.608;13.260;2023-04-25T13:14:04;7.55;;;1.40;;
71462;SDS011;59266;52.608;13.260;2023-04-25T13:16:34;9.45;;;1.45;;
71462;SDS011;59266;52.608;13.260;2023-04-25T13:19:02;7.85;;;1.50;;
71462;SDS011;59266;52.608;13.260;2023-04-25T13:21:32;5.80;;;1.20;;
71462;SDS011;59266;52.608;13.260;2023-04-25T13:23:58;7.80;;;1.48;;
71462;SDS011;59266;52.608;13.260;2023-04-25T13:26:25;6.28;;;1.65;;
71462;SDS011;59266;52.608;13.260;2023-04-25T13:28:52;7.43;;;1.60;;
71462;SDS011;59266;52.608;13.260;2023-04-25T13:31:18;8.27;;;1.48;;
71462;SDS011;59266;52.608;13.260;2023-04-25T13:33:45;7.40;;;1.60;;
71462;SDS011;59266;52.608;13.260;2023-04-25T13:36:12;10.48;;;1.40;;
71462;SDS011;59266;52.608;13.260;2023-04-25T13:38:39;10.10;;;1.60;;
71462;SDS011;59266;52.608;13.260;2023-04-25T13:41:10;6.93;;;1.42;;
71462;SDS011;59266;52.608;13.260;2023-04-25T13:43:40;7.75;;;1.60;;
71462;SDS011;59266;52.608;13.260;2023-04-25T13:46:08;8.00;;;1.40;;
71462;SDS011;59266;52.608;13.260;2023-04-25T13:48:55;7.30;;;1.30;;
71462;SDS011;59266;52.608;13.260;2023-04-25T13:51:35;6.32;;;1.40;;
71462;SDS011;59266;52.608;13.260;2023-04-25T13:54:04;6.18;;;1.55;;
71462;SDS011;59266;52.608;13.260;2023-04-25T13:56:31;8.05;;;1.40;;
71462;SDS011;59266;52.608;13.260;2023-04-25T13:58:57;6.60;;;1.83;;
71462;SDS011;59266;52.608;13.260;2023-04-25T14:01:28;6.07;;;1.80;;
71462;SDS011;59266;52.608;13.260;2023-04-25T14:04:01;6.78;;;1.80;;
71462;SDS011;59266;52.608;13.260;2023-04-25T14:06:31;7.68;;;1.50;;
71462;SDS011;59266;52.608;13.260;2023-04-25T14:09:01;6.40;;;1.35;;
71462;SDS011;59266;52.608;13.260;2023-04-25T14:11:32;6.80;;;1.60;;
71462;SDS011;59266;52.608;13.260;2023-04-25T14:14:03;8.15;;;1.52;;
71462;SDS011;59266;52.608;13.260;2023-04-25T14:16:33;7.40;;;1.60;;
71462;SDS011;59266;52.608;13.260;2023-04-25T14:19:03;6.28;;;1.42;;
71462;SDS011;59266;52.608;13.260;2023-04-25T14:21:32;7.95;;;1.60;;
71462;SDS011;59266;52.608;13.260;2023-04-25T14:23:58;6.20;;;1.63;;
71462;SDS011;59266;52.608;13.260;2023-04-25T14:26:25;10.35;;;1.70;;
71462;SDS011;59266;52.608;13.260;2023-04-25T14:28:54;11.15;;;1.65;;
71462;SDS011;59266;52.608;13.260;2023-04-25T14:31:21;8.73;;;1.90;;
71462;SDS011;59266;52.608;13.260;2023-04-25T14:33:47;9.13;;;1.70;;
71462;SDS011;59266;52.608;13.260;2023-04-25T14:36:14;11.40;;;1.73;;
71462;SDS011;59266;52.608;13.260;2023-04-25T14:38:41;4.15;;;1.13;;
71462;SDS011;59266;52.608;13.260;2023-04-25T14:41:08;7.72;;;1.35;;